Station Historical Data
Daily Summary for September 13, 2017 Units:  English    Metric   Both
« Previous Day
Next Day »
Daily Weekly Monthly Yearly Custom
  High: Low: Average:
Temperature: 71.4 °F 59.4 °F 64.5 °F
Dew Point: 61.7 °F 57.3 °F 59.2 °F
Humidity: 94% 65% 84%
Wind Speed: 12.0mph 2.0mph 7mph
Wind Gust: 24.0mph - -
Wind- - SSE
Pressure: 29.96 in 29.85 in -
Precipitation: 0.00 in    
Historical Graphs
 
 
Tabular Data for September 13, 2017
Time Temperature Dew Point Pressure Wind Wind Speed Wind Gust Humidity Rainfall Rate (Hourly) solar Conditions
00:00 59.9 °F 58.2 °F 29.87 in East 5.0 mph 5.0 mph 94% 0.00 in WeatherDisplay:10.37 W/m2 RA
00:10 59.9 °F 58.2 °F 29.87 in East 5.0 mph 5.0 mph 94% 0.00 in WeatherDisplay:10.37 W/m2 BKN
00:15 59.9 °F 58.2 °F 29.87 in East 5.0 mph 5.0 mph 94% 0.00 in WeatherDisplay:10.37 W/m2 BKN
00:20 59.9 °F 58.2 °F 29.87 in East 5.0 mph 5.0 mph 94% 0.00 in WeatherDisplay:10.37 W/m2 BKN
00:25 60.0 °F 58.2 °F 29.87 in East 8.0 mph 8.0 mph 94% 0.00 in WeatherDisplay:10.37 W/m2 BKN
00:30 60.0 °F 58.3 °F 29.87 in East 8.0 mph 8.0 mph 94% 0.00 in WeatherDisplay:10.37 W/m2 BKN
00:35 60.0 °F 58.3 °F 29.87 in East 8.0 mph 8.0 mph 94% 0.00 in WeatherDisplay:10.37 W/m2 BKN
00:40 60.0 °F 58.3 °F 29.87 in East 8.0 mph 8.0 mph 94% 0.00 in WeatherDisplay:10.37 W/m2 BKN
00:45 60.0 °F 58.3 °F 29.87 in East 10.0 mph 10.0 mph 94% 0.00 in WeatherDisplay:10.37 W/m2 OVC
00:50 60.0 °F 58.3 °F 29.87 in East 10.0 mph 10.0 mph 94% 0.00 in WeatherDisplay:10.37 W/m2 OVC
00:55 60.0 °F 58.3 °F 29.87 in East 10.0 mph 10.0 mph 94% 0.00 in WeatherDisplay:10.37 W/m2 OVC
01:00 60.0 °F 58.3 °F 29.87 in East 10.0 mph 10.0 mph 94% 0.00 in WeatherDisplay:10.37 W/m2 OVC
01:10 60.0 °F 58.3 °F 29.86 in East 10.0 mph 10.0 mph 94% 0.00 in WeatherDisplay:10.37 W/m2 OVC
01:15 59.9 °F 58.2 °F 29.86 in East 7.0 mph 10.0 mph 94% 0.00 in WeatherDisplay:10.37 W/m2 OVC
01:20 59.9 °F 58.2 °F 29.86 in East 7.0 mph 7.0 mph 94% 0.00 in WeatherDisplay:10.37 W/m2 OVC
01:25 59.9 °F 58.1 °F 29.86 in East 7.0 mph 7.0 mph 94% 0.00 in WeatherDisplay:10.37 W/m2 OVC
01:30 59.8 °F 58.1 °F 29.86 in East 7.0 mph 7.0 mph 94% 0.00 in WeatherDisplay:10.37 W/m2 OVC
01:40 59.8 °F 58.1 °F 29.86 in East 7.0 mph 7.0 mph 94% 0.00 in WeatherDisplay:10.37 W/m2 OVC
01:45 59.8 °F 58.1 °F 29.86 in East 7.0 mph 7.0 mph 94% 0.00 in WeatherDisplay:10.37 W/m2 OVC
01:50 59.7 °F 58.0 °F 29.86 in East 7.0 mph 7.0 mph 94% 0.00 in WeatherDisplay:10.37 W/m2 OVC
01:55 59.7 °F 58.0 °F 29.86 in East 7.0 mph 7.0 mph 94% 0.00 in WeatherDisplay:10.37 W/m2 OVC
02:00 59.7 °F 58.0 °F 29.86 in East 7.0 mph 7.0 mph 94% 0.00 in WeatherDisplay:10.37 W/m2 OVC
02:05 59.6 °F 57.9 °F 29.86 in East 7.0 mph 7.0 mph 94% 0.00 in WeatherDisplay:10.37 W/m2 OVC
02:10 59.6 °F 57.9 °F 29.86 in East 7.0 mph 7.0 mph 94% 0.00 in WeatherDisplay:10.37 W/m2 OVC
02:15 59.5 °F 57.8 °F 29.86 in East 7.0 mph 7.0 mph 94% 0.00 in WeatherDisplay:10.37 W/m2 OVC
02:20 59.5 °F 57.8 °F 29.86 in East 7.0 mph 7.0 mph 94% 0.00 in WeatherDisplay:10.37 W/m2 OVC
02:25 59.5 °F 57.8 °F 29.86 in East 7.0 mph 7.0 mph 94% 0.00 in WeatherDisplay:10.37 W/m2 OVC
02:30 59.5 °F 57.8 °F 29.86 in East 7.0 mph 7.0 mph 94% 0.00 in WeatherDisplay:10.37 W/m2 OVC
02:40 59.4 °F 57.7 °F 29.86 in East 7.0 mph 7.0 mph 94% 0.00 in WeatherDisplay:10.37 W/m2 OVC
02:45 59.4 °F 57.7 °F 29.86 in East 7.0 mph 7.0 mph 94% 0.00 in WeatherDisplay:10.37 W/m2 OVC
02:50 59.4 °F 57.7 °F 29.86 in East 7.0 mph 7.0 mph 94% 0.00 in WeatherDisplay:10.37 W/m2 OVC
02:55 59.4 °F 57.7 °F 29.86 in East 7.0 mph 7.0 mph 94% 0.00 in WeatherDisplay:10.37 W/m2 OVC
03:00 59.5 °F 57.8 °F 29.86 in East 7.0 mph 7.0 mph 94% 0.00 in WeatherDisplay:10.37 W/m2 OVC
03:05 59.5 °F 57.8 °F 29.86 in East 7.0 mph 7.0 mph 94% 0.00 in WeatherDisplay:10.37 W/m2 OVC
03:10 59.5 °F 57.8 °F 29.86 in East 7.0 mph 7.0 mph 94% 0.00 in WeatherDisplay:10.37 W/m2 OVC
03:15 59.5 °F 57.8 °F 29.86 in ESE 8.0 mph 8.0 mph 94% 0.00 in WeatherDisplay:10.37 W/m2 FEW
03:20 59.6 °F 57.9 °F 29.86 in ESE 8.0 mph 8.0 mph 94% 0.00 in WeatherDisplay:10.37 W/m2 FEW
03:35 59.7 °F 58.0 °F 29.86 in ESE 8.0 mph 8.0 mph 94% 0.00 in WeatherDisplay:10.37 W/m2 BKN
03:40 59.8 °F 58.1 °F 29.86 in ESE 8.0 mph 8.0 mph 94% 0.00 in WeatherDisplay:10.37 W/m2 BKN
03:45 59.8 °F 58.1 °F 29.86 in ESE 8.0 mph 8.0 mph 94% 0.00 in WeatherDisplay:10.37 W/m2 BKN
03:50 59.9 °F 58.1 °F 29.85 in ESE 8.0 mph 8.0 mph 94% 0.00 in WeatherDisplay:10.37 W/m2 BKN
03:55 59.9 °F 58.2 °F 29.85 in ESE 6.0 mph 8.0 mph 94% 0.00 in WeatherDisplay:10.37 W/m2 OVC
04:00 59.9 °F 58.2 °F 29.85 in ESE 6.0 mph 6.0 mph 94% 0.00 in WeatherDisplay:10.37 W/m2 OVC
04:05 60.0 °F 58.3 °F 29.85 in ESE 6.0 mph 6.0 mph 94% 0.00 in WeatherDisplay:10.37 W/m2 OVC
04:10 60.0 °F 58.3 °F 29.85 in ESE 6.0 mph 6.0 mph 94% 0.00 in WeatherDisplay:10.37 W/m2 OVC
04:15 60.0 °F 58.3 °F 29.86 in ESE 8.0 mph 8.0 mph 94% 0.00 in WeatherDisplay:10.37 W/m2 OVC
04:20 60.0 °F 58.3 °F 29.86 in ESE 8.0 mph 8.0 mph 94% 0.00 in WeatherDisplay:10.37 W/m2 OVC
04:25 60.0 °F 58.3 °F 29.86 in ESE 8.0 mph 8.0 mph 94% 0.00 in WeatherDisplay:10.37 W/m2 OVC
04:30 60.0 °F 58.3 °F 29.86 in ESE 8.0 mph 8.0 mph 94% 0.00 in WeatherDisplay:10.37 W/m2 OVC
04:35 60.1 °F 58.4 °F 29.86 in ESE 8.0 mph 8.0 mph 94% 0.00 in WeatherDisplay:10.37 W/m2 OVC
04:40 60.0 °F 58.3 °F 29.86 in ESE 8.0 mph 8.0 mph 94% 0.00 in WeatherDisplay:10.37 W/m2 OVC
04:45 60.0 °F 58.3 °F 29.86 in ESE 7.0 mph 8.0 mph 94% 0.00 in WeatherDisplay:10.37 W/m2 SCT
04:50 60.0 °F 58.3 °F 29.86 in SE 7.0 mph 7.0 mph 94% 0.00 in WeatherDisplay:10.37 W/m2 SCT
04:55 60.0 °F 58.3 °F 29.87 in SE 8.0 mph 8.0 mph 94% 0.00 in WeatherDisplay:10.37 W/m2 BKN
05:00 60.1 °F 58.4 °F 29.87 in ESE 8.0 mph 8.0 mph 94% 0.00 in WeatherDisplay:10.37 W/m2 BKN
05:10 60.0 °F 58.3 °F 29.87 in ESE 8.0 mph 8.0 mph 94% 0.00 in WeatherDisplay:10.37 W/m2 BKN
05:15 60.0 °F 58.3 °F 29.87 in SE 7.0 mph 8.0 mph 94% 0.00 in WeatherDisplay:10.37 W/m2 BKN
05:20 60.1 °F 58.4 °F 29.88 in SE 7.0 mph 7.0 mph 94% 0.00 in WeatherDisplay:10.37 W/m2 BKN
05:25 60.1 °F 58.4 °F 29.88 in SE 7.0 mph 7.0 mph 94% 0.00 in WeatherDisplay:10.37 W/m2 SCT
05:30 60.1 °F 58.4 °F 29.88 in SE 7.0 mph 7.0 mph 94% 0.00 in WeatherDisplay:10.37 W/m2 SCT
05:40 60.1 °F 58.4 °F 29.88 in SE 7.0 mph 7.0 mph 94% 0.00 in WeatherDisplay:10.37 W/m2 SCT
05:45 60.1 °F 58.4 °F 29.88 in SE 7.0 mph 7.0 mph 94% 0.00 in WeatherDisplay:10.37 W/m2 SCT
05:50 60.1 °F 58.4 °F 29.88 in SE 7.0 mph 7.0 mph 94% 0.00 in WeatherDisplay:10.37 W/m2 SCT
05:55 60.1 °F 58.4 °F 29.89 in SE 7.0 mph 7.0 mph 94% 0.00 in WeatherDisplay:10.37 W/m2 SCT
06:00 60.1 °F 58.4 °F 29.89 in SE 7.0 mph 7.0 mph 94% 0.00 in WeatherDisplay:10.37 W/m2 SCT
06:05 60.1 °F 58.4 °F 29.89 in SE 7.0 mph 7.0 mph 94% 0.00 in WeatherDisplay:10.37 W/m2 SCT
06:10 60.1 °F 58.4 °F 29.89 in SE 7.0 mph 7.0 mph 94% 0.00 in WeatherDisplay:10.37 W/m2 SCT
06:15 60.1 °F 58.4 °F 29.89 in SE 5.0 mph 7.0 mph 94% 0.00 in WeatherDisplay:10.37 W/m2 SCT
06:20 60.1 °F 58.4 °F 29.89 in SSE 5.0 mph 5.0 mph 94% 0.00 in WeatherDisplay:10.37 W/m2 SCT
06:25 60.1 °F 58.4 °F 29.90 in SSE 5.0 mph 5.0 mph 94% 0.00 in WeatherDisplay:10.37 W/m2 SCT
06:30 60.1 °F 58.4 °F 29.90 in SSE 5.0 mph 5.0 mph 94% 0.00 in WeatherDisplay:10.37 W/m2 SCT
06:35 60.1 °F 58.4 °F 29.90 in SSE 5.0 mph 5.0 mph 94% 0.00 in WeatherDisplay:10.37 W/m2 SCT
06:40 60.1 °F 58.4 °F 29.90 in SSE 5.0 mph 5.0 mph 94% 0.00 in WeatherDisplay:10.37 W/m2 SCT
06:45 60.1 °F 58.4 °F 29.90 in SSE 5.0 mph 5.0 mph 94% 0.00 in WeatherDisplay:10.37 W/m2 SCT
06:50 60.1 °F 58.4 °F 29.90 in SSE 5.0 mph 5.0 mph 94% 0.00 in WeatherDisplay:10.37 W/m2 SCT
06:55 60.1 °F 58.4 °F 29.90 in SSE 5.0 mph 5.0 mph 94% 0.00 in WeatherDisplay:10.37 W/m2 SCT
07:00 60.1 °F 58.4 °F 29.90 in SSE 5.0 mph 5.0 mph 94% 0.00 in WeatherDisplay:10.37 W/m2 SCT
07:05 60.1 °F 58.4 °F 29.91 in SSE 5.0 mph 5.0 mph 94% 0.00 in WeatherDisplay:10.37 W/m2 SCT
07:10 60.1 °F 58.4 °F 29.91 in SSE 5.0 mph 5.0 mph 94% 0.00 in WeatherDisplay:10.37 W/m2 SCT
07:15 60.1 °F 58.4 °F 29.92 in SSE 7.0 mph 7.0 mph 94% 0.00 in WeatherDisplay:10.37 W/m2 OVC
07:20 60.2 °F 58.5 °F 29.92 in South 7.0 mph 7.0 mph 94% 0.00 in WeatherDisplay:10.37 W/m2 OVC
07:25 60.1 °F 58.4 °F 29.92 in South 7.0 mph 7.0 mph 94% 0.00 in WeatherDisplay:10.37 W/m2 OVC
07:30 60.1 °F 58.4 °F 29.92 in South 7.0 mph 7.0 mph 94% 0.00 in WeatherDisplay:10.37 W/m2 OVC
07:40 60.1 °F 58.4 °F 29.93 in South 7.0 mph 7.0 mph 94% 0.00 in WeatherDisplay:10.37 W/m2 OVC
07:45 60.1 °F 58.4 °F 29.92 in SSE 6.0 mph 7.0 mph 94% 0.00 in WeatherDisplay:10.37 W/m2 OVC
07:50 60.2 °F 58.4 °F 29.92 in SSE 6.0 mph 6.0 mph 94% 0.00 in WeatherDisplay:10.37 W/m2 OVC
07:55 60.2 °F 58.5 °F 29.92 in SSE 6.0 mph 6.0 mph 94% 0.00 in WeatherDisplay:10.37 W/m2 OVC
08:00 60.3 °F 58.6 °F 29.92 in SSE 6.0 mph 6.0 mph 94% 0.00 in WeatherDisplay:10.37 W/m2 OVC
08:05 60.3 °F 58.6 °F 29.92 in SSE 6.0 mph 6.0 mph 94% 0.00 in WeatherDisplay:10.37 W/m2 OVC
08:10 60.3 °F 58.6 °F 29.93 in SSE 6.0 mph 6.0 mph 94% 0.00 in WeatherDisplay:10.37 W/m2 OVC
08:15 60.4 °F 58.7 °F 29.93 in SE 8.0 mph 8.0 mph 94% 0.00 in WeatherDisplay:10.37 W/m2 BKN
08:20 60.4 °F 58.7 °F 29.93 in SE 8.0 mph 8.0 mph 94% 0.00 in WeatherDisplay:10.37 W/m2 BKN
08:25 60.5 °F 58.8 °F 29.93 in SE 8.0 mph 8.0 mph 94% 0.00 in WeatherDisplay:10.37 W/m2 BKN
08:30 60.5 °F 58.8 °F 29.93 in SE 8.0 mph 8.0 mph 94% 0.00 in WeatherDisplay:10.37 W/m2 BKN
08:35 60.6 °F 58.9 °F 29.93 in SE 8.0 mph 8.0 mph 94% 0.00 in WeatherDisplay:10.37 W/m2 BKN
08:40 60.6 °F 58.8 °F 29.93 in SE 8.0 mph 8.0 mph 94% 0.00 in WeatherDisplay:10.37 W/m2 BKN
08:45 60.6 °F 58.9 °F 29.93 in SE 10.0 mph 10.0 mph 94% 0.00 in WeatherDisplay:10.37 W/m2 BKN
08:50 60.7 °F 59.0 °F 29.93 in SE 10.0 mph 10.0 mph 94% 0.00 in WeatherDisplay:10.37 W/m2 BKN
08:55 60.9 °F 59.2 °F 29.94 in SE 10.0 mph 10.0 mph 94% 0.00 in WeatherDisplay:10.37 W/m2 BKN
09:00 61.0 °F 59.0 °F 29.94 in SE 10.0 mph 10.0 mph 93% 0.00 in WeatherDisplay:10.37 W/m2 BKN
09:05 61.1 °F 59.1 °F 29.93 in SE 10.0 mph 10.0 mph 93% 0.00 in WeatherDisplay:10.37 W/m2 BKN
09:10 61.1 °F 59.1 °F 29.94 in SE 10.0 mph 10.0 mph 93% 0.00 in WeatherDisplay:10.37 W/m2 BKN
09:15 61.3 °F 59.3 °F 29.94 in SE 7.0 mph 10.0 mph 93% 0.00 in WeatherDisplay:10.37 W/m2 SCT
09:20 61.4 °F 59.4 °F 29.93 in SSE 7.0 mph 7.0 mph 93% 0.00 in WeatherDisplay:10.37 W/m2 SCT
09:25 61.7 °F 59.3 °F 29.94 in SE 9.0 mph 9.0 mph 92% 0.00 in WeatherDisplay:10.37 W/m2 BKN
09:30 61.9 °F 59.5 °F 29.94 in SE 9.0 mph 9.0 mph 92% 0.00 in WeatherDisplay:10.37 W/m2 BKN
09:35 62.2 °F 59.8 °F 29.94 in SE 9.0 mph 9.0 mph 92% 0.00 in WeatherDisplay:10.37 W/m2 BKN
09:40 62.5 °F 59.8 °F 29.94 in SE 9.0 mph 9.0 mph 91% 0.00 in WeatherDisplay:10.37 W/m2 BKN
09:45 62.6 °F 59.9 °F 29.94 in SE 9.0 mph 9.0 mph 91% 0.00 in WeatherDisplay:10.37 W/m2 BKN
09:50 62.9 °F 60.0 °F 29.94 in SE 9.0 mph 9.0 mph 90% 0.00 in WeatherDisplay:10.37 W/m2 BKN
09:55 63.2 °F 59.9 °F 29.95 in SE 9.0 mph 9.0 mph 89% 0.00 in WeatherDisplay:10.37 W/m2 BKN
10:00 63.6 °F 60.3 °F 29.95 in SE 9.0 mph 9.0 mph 89% 0.00 in WeatherDisplay:10.37 W/m2 BKN
10:10 64.1 °F 60.2 °F 29.95 in SE 9.0 mph 9.0 mph 87% 0.00 in WeatherDisplay:10.37 W/m2 BKN
10:15 64.1 °F 59.8 °F 29.95 in SSE 7.0 mph 9.0 mph 86% 0.00 in WeatherDisplay:10.37 W/m2 BKN
10:20 64.3 °F 60.4 °F 29.95 in SSE 7.0 mph 7.0 mph 87% 0.00 in WeatherDisplay:10.37 W/m2 BKN
10:25 64.7 °F 60.4 °F 29.95 in SSE 7.0 mph 7.0 mph 86% 0.00 in WeatherDisplay:10.37 W/m2 BKN
10:30 65.1 °F 60.8 °F 29.95 in SSE 7.0 mph 7.0 mph 86% 0.00 in WeatherDisplay:10.37 W/m2 BKN
10:40 66.0 °F 60.4 °F 29.95 in SSE 7.0 mph 7.0 mph 82% 0.00 in WeatherDisplay:10.37 W/m2 BKN
10:45 66.6 °F 61.3 °F 29.96 in SSE 7.0 mph 7.0 mph 83% 0.00 in WeatherDisplay:10.37 W/m2 BKN
10:50 67.2 °F 60.4 °F 29.96 in SSE 7.0 mph 7.0 mph 79% 0.00 in WeatherDisplay:10.37 W/m2 BKN
10:55 67.7 °F 60.2 °F 29.95 in SSE 7.0 mph 7.0 mph 77% 0.00 in WeatherDisplay:10.37 W/m2 BKN
11:00 68.2 °F 60.7 °F 29.95 in SSE 7.0 mph 7.0 mph 77% 0.00 in WeatherDisplay:10.37 W/m2 BKN
11:05 68.8 °F 59.8 °F 29.95 in SSE 7.0 mph 7.0 mph 73% 0.00 in WeatherDisplay:10.37 W/m2 BKN
11:10 69.3 °F 61.0 °F 29.95 in SSE 7.0 mph 7.0 mph 75% 0.00 in WeatherDisplay:10.37 W/m2 BKN
11:15 69.6 °F 59.8 °F 29.95 in SSW 9.0 mph 9.0 mph 71% 0.00 in WeatherDisplay:10.37 W/m2 BKN
11:20 69.6 °F 60.2 °F 29.95 in SW 9.0 mph 9.0 mph 72% 0.00 in WeatherDisplay:10.37 W/m2 BKN
11:25 69.7 °F 60.3 °F 29.95 in SW 9.0 mph 9.0 mph 72% 0.00 in WeatherDisplay:10.37 W/m2 BKN
11:30 69.7 °F 60.3 °F 29.95 in SW 9.0 mph 9.0 mph 72% 0.00 in WeatherDisplay:10.37 W/m2 BKN
11:40 70.0 °F 60.6 °F 29.95 in SW 9.0 mph 9.0 mph 72% 0.00 in WeatherDisplay:10.37 W/m2 BKN
11:45 70.2 °F 60.3 °F 29.95 in SW 9.0 mph 9.0 mph 71% 0.00 in WeatherDisplay:10.37 W/m2 BKN
11:50 70.3 °F 60.8 °F 29.95 in SW 9.0 mph 9.0 mph 72% 0.00 in WeatherDisplay:10.37 W/m2 BKN
11:55 70.1 °F 59.5 °F 29.95 in SW 9.0 mph 9.0 mph 69% 0.00 in WeatherDisplay:10.37 W/m2 BKN
12:00 70.1 °F 59.1 °F 29.95 in SW 9.0 mph 9.0 mph 68% 0.00 in WeatherDisplay:10.37 W/m2 BKN
12:05 70.1 °F 59.0 °F 29.95 in SW 9.0 mph 9.0 mph 68% 0.00 in WeatherDisplay:10.37 W/m2 BKN
12:10 69.8 °F 60.4 °F 29.95 in SW 9.0 mph 9.0 mph 72% 0.00 in WeatherDisplay:10.37 W/m2 BKN
12:15 70.0 °F 59.8 °F 29.95 in SSW 9.0 mph 24.0 mph 70% 0.00 in WeatherDisplay:10.37 W/m2 BKN
12:20 70.2 °F 60.0 °F 29.95 in South 9.0 mph 24.0 mph 70% 0.00 in WeatherDisplay:10.37 W/m2 BKN
12:25 70.3 °F 59.2 °F 29.95 in South 9.0 mph 24.0 mph 68% 0.00 in WeatherDisplay:10.37 W/m2 BKN
12:30 70.0 °F 59.4 °F 29.95 in South 9.0 mph 24.0 mph 69% 0.00 in WeatherDisplay:10.37 W/m2 BKN
12:40 69.2 °F 59.4 °F 29.95 in South 9.0 mph 24.0 mph 71% 0.00 in WeatherDisplay:10.37 W/m2 BKN
12:45 68.9 °F 59.1 °F 29.95 in South 9.0 mph 24.0 mph 71% 0.00 in WeatherDisplay:10.37 W/m2 BKN
12:50 68.5 °F 59.1 °F 29.94 in South 9.0 mph 24.0 mph 72% 0.00 in WeatherDisplay:10.37 W/m2 BKN
12:55 68.2 °F 58.8 °F 29.94 in South 9.0 mph 24.0 mph 72% 0.00 in WeatherDisplay:10.37 W/m2 BKN
13:00 68.2 °F 59.2 °F 29.94 in South 9.0 mph 24.0 mph 73% 0.00 in WeatherDisplay:10.37 W/m2 BKN
13:05 68.3 °F 59.7 °F 29.94 in South 9.0 mph 24.0 mph 74% 0.00 in WeatherDisplay:10.37 W/m2 BKN
13:10 68.3 °F 58.1 °F 29.94 in South 9.0 mph 24.0 mph 70% 0.00 in WeatherDisplay:10.37 W/m2 BKN
13:15 68.5 °F 59.1 °F 29.94 in SSW 12.0 mph 24.0 mph 72% 0.00 in WeatherDisplay:10.37 W/m2 BKN
13:20 68.8 °F 58.2 °F 29.94 in SSW 12.0 mph 12.0 mph 69% 0.00 in WeatherDisplay:10.37 W/m2 BKN
13:25 69.0 °F 59.6 °F 29.94 in SSW 12.0 mph 12.0 mph 72% 0.00 in WeatherDisplay:10.37 W/m2 BKN
13:30 69.1 °F 58.5 °F 29.94 in SSW 12.0 mph 12.0 mph 69% 0.00 in WeatherDisplay:10.37 W/m2 BKN
13:35 69.0 °F 59.2 °F 29.94 in SSW 12.0 mph 12.0 mph 71% 0.00 in WeatherDisplay:10.37 W/m2 BKN
13:40 68.8 °F 58.2 °F 29.94 in SSW 12.0 mph 12.0 mph 69% 0.00 in WeatherDisplay:10.37 W/m2 BKN
13:45 68.6 °F 58.4 °F 29.94 in SSW 12.0 mph 12.0 mph 70% 0.00 in WeatherDisplay:10.37 W/m2 BKN
13:50 68.5 °F 58.0 °F 29.94 in SSW 12.0 mph 12.0 mph 69% 0.00 in WeatherDisplay:10.37 W/m2 BKN
13:55 68.7 °F 59.3 °F 29.94 in SSW 12.0 mph 12.0 mph 72% 0.00 in WeatherDisplay:10.37 W/m2 BKN
14:00 68.8 °F 58.6 °F 29.94 in SSW 12.0 mph 12.0 mph 70% 0.00 in WeatherDisplay:10.37 W/m2 BKN
14:05 69.1 °F 59.7 °F 29.94 in SSW 12.0 mph 12.0 mph 72% 0.00 in WeatherDisplay:10.37 W/m2 BKN
14:10 69.7 °F 58.7 °F 29.94 in SSW 12.0 mph 12.0 mph 68% 0.00 in WeatherDisplay:10.37 W/m2 BKN
14:15 70.5 °F 59.4 °F 29.93 in SSW 12.0 mph 21.0 mph 68% 0.00 in WeatherDisplay:10.37 W/m2 BKN
14:20 70.6 °F 58.7 °F 29.93 in SSW 12.0 mph 21.0 mph 66% 0.00 in WeatherDisplay:10.37 W/m2 BKN
14:25 70.4 °F 58.5 °F 29.93 in SSW 12.0 mph 21.0 mph 66% 0.00 in WeatherDisplay:10.37 W/m2 BKN
14:30 70.1 °F 58.6 °F 29.93 in SSW 12.0 mph 21.0 mph 67% 0.00 in WeatherDisplay:10.37 W/m2 BKN
14:35 69.8 °F 58.4 °F 29.93 in SSW 12.0 mph 21.0 mph 67% 0.00 in WeatherDisplay:10.37 W/m2 BKN
14:40 69.6 °F 57.3 °F 29.93 in SSW 12.0 mph 21.0 mph 65% 0.00 in WeatherDisplay:10.37 W/m2 BKN
14:45 69.5 °F 58.5 °F 29.93 in SSW 12.0 mph 21.0 mph 68% 0.00 in WeatherDisplay:10.37 W/m2 BKN
14:50 69.5 °F 58.9 °F 29.93 in SSW 12.0 mph 21.0 mph 69% 0.00 in WeatherDisplay:10.37 W/m2 BKN
14:55 69.5 °F 59.3 °F 29.93 in SSW 12.0 mph 21.0 mph 70% 0.00 in WeatherDisplay:10.37 W/m2 BKN
15:00 69.4 °F 58.4 °F 29.93 in SSW 12.0 mph 21.0 mph 68% 0.00 in WeatherDisplay:10.37 W/m2 BKN
15:10 69.5 °F 59.7 °F 29.93 in SSW 12.0 mph 21.0 mph 71% 0.00 in WeatherDisplay:10.37 W/m2 BKN
15:15 69.5 °F 58.9 °F 29.93 in SW 9.0 mph 21.0 mph 69% 0.00 in WeatherDisplay:10.37 W/m2 BKN
15:20 69.4 °F 58.0 °F 29.93 in WSW 9.0 mph 9.0 mph 67% 0.00 in WeatherDisplay:10.37 W/m2 BKN
15:25 69.4 °F 58.4 °F 29.93 in WSW 9.0 mph 9.0 mph 68% 0.00 in WeatherDisplay:10.37 W/m2 BKN
15:30 69.6 °F 59.4 °F 29.93 in WSW 9.0 mph 9.0 mph 70% 0.00 in WeatherDisplay:10.37 W/m2 BKN
15:35 69.7 °F 59.1 °F 29.92 in WSW 9.0 mph 9.0 mph 69% 0.00 in WeatherDisplay:10.37 W/m2 BKN
15:40 70.0 °F 59.4 °F 29.92 in WSW 9.0 mph 9.0 mph 69% 0.00 in WeatherDisplay:10.37 W/m2 BKN
15:45 70.2 °F 59.2 °F 29.92 in WSW 9.0 mph 9.0 mph 68% 0.00 in WeatherDisplay:10.37 W/m2 BKN
15:50 70.4 °F 59.7 °F 29.92 in WSW 9.0 mph 9.0 mph 69% 0.00 in WeatherDisplay:10.37 W/m2 BKN
15:55 70.4 °F 59.3 °F 29.92 in WSW 9.0 mph 9.0 mph 68% 0.00 in WeatherDisplay:10.37 W/m2 BKN
16:00 70.5 °F 60.6 °F 29.92 in WSW 9.0 mph 9.0 mph 71% 0.00 in WeatherDisplay:10.37 W/m2 BKN
16:05 70.4 °F 60.5 °F 29.92 in WSW 9.0 mph 9.0 mph 71% 0.00 in WeatherDisplay:10.37 W/m2 BKN
16:10 70.5 °F 59.0 °F 29.92 in WSW 9.0 mph 9.0 mph 67% 0.00 in WeatherDisplay:10.37 W/m2 BKN
16:15 70.7 °F 60.0 °F 29.92 in SW 9.0 mph 9.0 mph 69% 0.00 in WeatherDisplay:10.37 W/m2 BKN
16:20 70.9 °F 60.2 °F 29.92 in SW 9.0 mph 9.0 mph 69% 0.00 in WeatherDisplay:10.37 W/m2 BKN
16:25 71.2 °F 59.7 °F 29.91 in SW 9.0 mph 9.0 mph 67% 0.00 in WeatherDisplay:10.37 W/m2 BKN
16:30 71.3 °F 61.0 °F 29.92 in SW 9.0 mph 9.0 mph 70% 0.00 in WeatherDisplay:10.37 W/m2 BKN
16:35 71.4 °F 59.4 °F 29.92 in SW 9.0 mph 9.0 mph 66% 0.00 in WeatherDisplay:10.37 W/m2 BKN
16:40 71.3 °F 60.2 °F 29.92 in SW 9.0 mph 9.0 mph 68% 0.00 in WeatherDisplay:10.37 W/m2 BKN
16:45 71.3 °F 58.9 °F 29.92 in SW 9.0 mph 9.0 mph 65% 0.00 in WeatherDisplay:10.37 W/m2 BKN
16:50 71.1 °F 59.6 °F 29.92 in SW 9.0 mph 9.0 mph 67% 0.00 in WeatherDisplay:10.37 W/m2 BKN
16:55 71.0 °F 59.9 °F 29.92 in SW 9.0 mph 9.0 mph 68% 0.00 in WeatherDisplay:10.37 W/m2 BKN
17:00 70.8 °F 59.7 °F 29.92 in SW 9.0 mph 9.0 mph 68% 0.00 in WeatherDisplay:10.37 W/m2 BKN
17:10 70.5 °F 59.8 °F 29.92 in SW 9.0 mph 9.0 mph 69% 0.00 in WeatherDisplay:10.37 W/m2 BKN
17:15 70.3 °F 58.8 °F 29.91 in SW 7.0 mph 9.0 mph 67% 0.00 in WeatherDisplay:10.37 W/m2 BKN
17:20 70.2 °F 60.4 °F 29.91 in SW 7.0 mph 7.0 mph 71% 0.00 in WeatherDisplay:10.37 W/m2 BKN
17:25 70.0 °F 59.7 °F 29.92 in SW 7.0 mph 7.0 mph 70% 0.00 in WeatherDisplay:10.37 W/m2 BKN
17:30 69.8 °F 59.6 °F 29.91 in SW 7.0 mph 7.0 mph 70% 0.00 in WeatherDisplay:10.37 W/m2 BKN
17:40 69.6 °F 60.2 °F 29.91 in SW 7.0 mph 7.0 mph 72% 0.00 in WeatherDisplay:10.37 W/m2 BKN
17:45 69.3 °F 60.7 °F 29.91 in SW 7.0 mph 7.0 mph 74% 0.00 in WeatherDisplay:10.37 W/m2 BKN
17:50 69.1 °F 60.1 °F 29.92 in SW 7.0 mph 7.0 mph 73% 0.00 in WeatherDisplay:10.37 W/m2 BKN
18:00 68.9 °F 60.3 °F 29.92 in SW 7.0 mph 7.0 mph 74% 0.00 in WeatherDisplay:10.37 W/m2 BKN
18:05 68.8 °F 60.6 °F 29.92 in SW 7.0 mph 7.0 mph 75% 0.00 in WeatherDisplay:10.37 W/m2 BKN
18:10 68.7 °F 60.8 °F 29.92 in SW 7.0 mph 7.0 mph 76% 0.00 in WeatherDisplay:10.37 W/m2 BKN
18:15 68.6 °F 61.1 °F 29.92 in SW 6.0 mph 7.0 mph 77% 0.00 in WeatherDisplay:10.37 W/m2 OVC
18:20 68.4 °F 60.9 °F 29.92 in SSW 6.0 mph 6.0 mph 77% 0.00 in WeatherDisplay:10.37 W/m2 OVC
18:25 68.4 °F 61.6 °F 29.92 in SSW 7.0 mph 7.0 mph 79% 0.00 in WeatherDisplay:10.37 W/m2 -RA
18:30 68.3 °F 61.5 °F 29.92 in SSW 7.0 mph 7.0 mph 79% 0.00 in WeatherDisplay:10.37 W/m2 -RA
18:40 68.1 °F 61.7 °F 29.92 in SSW 7.0 mph 7.0 mph 80% 0.00 in WeatherDisplay:10.37 W/m2 -RA
18:45 68.0 °F 61.2 °F 29.92 in SSW 6.0 mph 7.0 mph 79% 0.00 in WeatherDisplay:10.37 W/m2 FEW
18:50 68.0 °F 61.6 °F 29.92 in SSW 6.0 mph 6.0 mph 80% 0.00 in WeatherDisplay:10.37 W/m2 FEW
18:55 68.0 °F 61.2 °F 29.92 in SSW 6.0 mph 6.0 mph 79% 0.00 in WeatherDisplay:10.37 W/m2 FEW
19:00 67.9 °F 61.5 °F 29.92 in SSW 6.0 mph 6.0 mph 80% 0.00 in WeatherDisplay:10.37 W/m2 FEW
19:05 67.9 °F 61.1 °F 29.92 in SSW 6.0 mph 6.0 mph 79% 0.00 in WeatherDisplay:10.37 W/m2 FEW
19:10 67.7 °F 61.0 °F 29.92 in SSW 6.0 mph 6.0 mph 79% 0.00 in WeatherDisplay:10.37 W/m2 FEW
19:15 67.5 °F 60.7 °F 29.92 in SSW 3.0 mph 6.0 mph 79% 0.00 in WeatherDisplay:10.37 W/m2 BKN
19:20 67.2 °F 60.5 °F 29.92 in SSW 3.0 mph 3.0 mph 79% 0.00 in WeatherDisplay:10.37 W/m2 BKN
19:25 67.0 °F 60.6 °F 29.92 in SSW 3.0 mph 3.0 mph 80% 0.00 in WeatherDisplay:10.37 W/m2 BKN
19:30 66.8 °F 60.4 °F 29.92 in SSW 3.0 mph 3.0 mph 80% 0.00 in WeatherDisplay:10.37 W/m2 BKN
19:35 66.4 °F 60.1 °F 29.92 in SSW 3.0 mph 3.0 mph 80% 0.00 in WeatherDisplay:10.37 W/m2 BKN
19:40 66.2 °F 60.2 °F 29.92 in SSW 3.0 mph 3.0 mph 81% 0.00 in WeatherDisplay:10.37 W/m2 BKN
19:45 65.9 °F 59.9 °F 29.92 in SSW 3.0 mph 3.0 mph 81% 0.00 in WeatherDisplay:10.37 W/m2 BKN
19:50 65.6 °F 59.6 °F 29.92 in SSW 3.0 mph 3.0 mph 81% 0.00 in WeatherDisplay:10.37 W/m2 BKN
19:55 65.5 °F 59.5 °F 29.92 in SSW 3.0 mph 3.0 mph 81% 0.00 in WeatherDisplay:10.37 W/m2 BKN
20:00 65.4 °F 60.1 °F 29.92 in SSW 3.0 mph 3.0 mph 83% 0.00 in WeatherDisplay:10.37 W/m2 BKN
20:05 65.2 °F 59.9 °F 29.92 in SSW 3.0 mph 3.0 mph 83% 0.00 in WeatherDisplay:10.37 W/m2 BKN
20:10 65.0 °F 59.7 °F 29.93 in SSW 3.0 mph 3.0 mph 83% 0.00 in WeatherDisplay:10.37 W/m2 BKN
20:15 64.8 °F 59.5 °F 29.93 in South 2.0 mph 3.0 mph 83% 0.00 in WeatherDisplay:10.37 W/m2 OVC
20:20 64.7 °F 59.8 °F 29.93 in South 2.0 mph 2.0 mph 84% 0.00 in WeatherDisplay:10.37 W/m2 OVC
20:25 64.6 °F 59.7 °F 29.93 in South 2.0 mph 2.0 mph 84% 0.00 in WeatherDisplay:10.37 W/m2 OVC
20:30 64.5 °F 59.6 °F 29.93 in South 2.0 mph 2.0 mph 84% 0.00 in WeatherDisplay:10.37 W/m2 OVC
20:40 64.3 °F 59.7 °F 29.93 in South 2.0 mph 2.0 mph 85% 0.00 in WeatherDisplay:10.37 W/m2 OVC
20:45 64.1 °F 59.2 °F 29.93 in South 2.0 mph 2.0 mph 84% 0.00 in WeatherDisplay:10.37 W/m2 OVC
20:50 64.1 °F 59.2 °F 29.93 in South 2.0 mph 2.0 mph 84% 0.00 in WeatherDisplay:10.37 W/m2 OVC
20:55 64.1 °F 59.2 °F 29.93 in South 2.0 mph 2.0 mph 84% 0.00 in WeatherDisplay:10.37 W/m2 OVC
21:00 64.1 °F 59.5 °F 29.94 in South 2.0 mph 2.0 mph 85% 0.00 in WeatherDisplay:10.37 W/m2 OVC
21:10 64.1 °F 59.8 °F 29.94 in South 2.0 mph 2.0 mph 86% 0.00 in WeatherDisplay:10.37 W/m2 OVC
21:15 64.0 °F 59.7 °F 29.94 in South 2.0 mph 2.0 mph 86% 0.00 in WeatherDisplay:10.37 W/m2 OVC
21:20 64.0 °F 59.7 °F 29.94 in South 2.0 mph 2.0 mph 86% 0.00 in WeatherDisplay:10.37 W/m2 OVC
21:25 63.9 °F 59.6 °F 29.94 in South 2.0 mph 2.0 mph 86% 0.00 in WeatherDisplay:10.37 W/m2 OVC
21:30 63.9 °F 59.6 °F 29.94 in South 2.0 mph 2.0 mph 86% 0.00 in WeatherDisplay:10.37 W/m2 OVC
21:40 63.9 °F 60.0 °F 29.94 in South 2.0 mph 2.0 mph 87% 0.00 in WeatherDisplay:10.37 W/m2 OVC
21:45 63.8 °F 59.9 °F 29.94 in South 2.0 mph 2.0 mph 87% 0.00 in WeatherDisplay:10.37 W/m2 OVC
21:50 63.8 °F 59.9 °F 29.94 in South 2.0 mph 2.0 mph 87% 0.00 in WeatherDisplay:10.37 W/m2 OVC
21:55 63.8 °F 59.9 °F 29.94 in South 2.0 mph 2.0 mph 87% 0.00 in WeatherDisplay:10.37 W/m2 OVC
22:00 63.7 °F 59.8 °F 29.94 in South 2.0 mph 2.0 mph 87% 0.00 in WeatherDisplay:10.37 W/m2 OVC
22:05 63.7 °F 60.1 °F 29.94 in South 2.0 mph 2.0 mph 88% 0.00 in WeatherDisplay:10.37 W/m2 OVC
22:10 63.7 °F 60.1 °F 29.94 in South 2.0 mph 2.0 mph 88% 0.00 in WeatherDisplay:10.37 W/m2 OVC
22:15 63.6 °F 59.7 °F 29.94 in South 2.0 mph 2.0 mph 87% 0.00 in WeatherDisplay:10.37 W/m2 OVC
22:20 63.6 °F 59.7 °F 29.94 in South 2.0 mph 2.0 mph 87% 0.00 in WeatherDisplay:10.37 W/m2 OVC
22:25 63.6 °F 59.7 °F 29.94 in South 2.0 mph 2.0 mph 87% 0.00 in WeatherDisplay:10.37 W/m2 OVC
22:30 63.7 °F 60.0 °F 29.94 in South 2.0 mph 2.0 mph 88% 0.00 in WeatherDisplay:10.37 W/m2 OVC
22:35 63.6 °F 60.0 °F 29.94 in South 2.0 mph 2.0 mph 88% 0.00 in WeatherDisplay:10.37 W/m2 OVC
22:40 63.6 °F 60.0 °F 29.94 in South 2.0 mph 2.0 mph 88% 0.00 in WeatherDisplay:10.37 W/m2 OVC
22:45 63.6 °F 59.7 °F 29.94 in South 2.0 mph 2.0 mph 87% 0.00 in WeatherDisplay:10.37 W/m2 OVC
22:50 63.6 °F 59.7 °F 29.94 in South 2.0 mph 2.0 mph 87% 0.00 in WeatherDisplay:10.37 W/m2 OVC
22:55 63.6 °F 59.6 °F 29.94 in South 2.0 mph 2.0 mph 87% 0.00 in WeatherDisplay:10.37 W/m2 OVC
23:00 63.6 °F 59.7 °F 29.94 in South 2.0 mph 2.0 mph 87% 0.00 in WeatherDisplay:10.37 W/m2 OVC
23:05 63.6 °F 60.0 °F 29.94 in South 2.0 mph 2.0 mph 88% 0.00 in WeatherDisplay:10.37 W/m2 OVC
23:10 63.7 °F 60.1 °F 29.94 in South 2.0 mph 2.0 mph 88% 0.00 in WeatherDisplay:10.37 W/m2 OVC
23:25 63.7 °F 60.1 °F 29.95 in South 2.0 mph 2.0 mph 88% 0.00 in WeatherDisplay:10.37 W/m2 OVC
23:35 63.7 °F 59.8 °F 29.95 in South 2.0 mph 2.0 mph 87% 0.00 in WeatherDisplay:10.37 W/m2 OVC
23:40 63.8 °F 59.9 °F 29.95 in South 2.0 mph 2.0 mph 87% 0.00 in WeatherDisplay:10.37 W/m2 OVC
23:45 63.8 °F 60.2 °F 29.95 in South 2.0 mph 2.0 mph 88% 0.00 in WeatherDisplay:10.37 W/m2 OVC
23:50 63.8 °F 60.2 °F 29.95 in South 2.0 mph 2.0 mph 88% 0.00 in WeatherDisplay:10.37 W/m2 OVC
23:55 63.7 °F 60.1 °F 29.95 in South 2.0 mph 2.0 mph 88% 0.00 in WeatherDisplay:10.37 W/m2 OVC
Piedmont Bend
Compliments of Weather Underground - 4 mb